米子 の空港の天気 - METARとTAF

美保飛行場 ( RJOH / YGJ ) - 鳥取県米子市
飛行場実況気象(Metar)
観測時間01/22 03:00 JST (01/21 18:00 UTC)
風向・風速南南東 2m/s
視程10km以上
天気現象
少しの雲 雲底高度 910m
全天の4割程度の雲 雲底高度 1520m
全天の8割程度の雲 雲底高度 5490m
気温2℃
湿度81%
気圧1019hPa
METARRJOH 211800Z 16003KT 9999 FEW030 SCT050 BKN180 02/M01 Q1019
過去の天気等 Google飛行場航空写真 Wunderground天気予報

過去48時間のMETAR

飛行場予報(TAF)
発表時間: 1/22 02:11 JST (1/21 17:11 UTC)
予報対象時間: 22日3時 JST ~ 23日9時 JST
風向・風速東 5m/s
視程10km以上
少しの雲 雲底高度 460m
全天の4割程度の雲 雲底高度 910m
全天の8割程度の雲 雲底高度 1,520m
22日10時 JST ~ 22日12時 JST に徐々に
風向・風速南西 5m/s
23日0時 JST ~ 23日6時 JST に一時的に
天気現象弱い雷雨
少しの雲 雲底高度 300m
全天の4割程度の雲 雲底高度 460m
少しの積乱雲 雲底高度 610m
全天の8割程度の雲 雲底高度 910m
23日3時 JST ~ 23日6時 JST に徐々に
風向・風速西 13m/s 瞬間風速 19m/s
TAF RJOH 211711Z 2118/2300 10010KT 9999 FEW015 SCT030 BKN050
BECMG 2201/2203 23010KT
TEMPO 2215/2221 -TSRA FEW010 SCT015 FEW020CB BKN030
BECMG 2218/2221 26025G37KT
日本の空港のMETAR・TAFへのリンク

RJTT 東京国際空港
RJAA 新東京国際空港
RJBB 関西国際空港
RJOO 大阪空港
RJGG 中部国際空港
RJCC 新千歳空港
RJFF 福岡空港
ROAH 那覇空港


RJEC 旭川空港
RJCH 函館空港
RJCK 釧路空港
RJCM 女満別空港
RJCB 帯広空港
RJSA 青森空港
RJSS 仙台空港
RJSK 秋田空港
RJSF 福島空港
RJAH 茨城空港
RJSN 新潟空港
RJNT 富山空港
RJNK 小松飛行場
RJNS 静岡空港
RJOH 美保飛行場
RJOC 出雲空港
RJOB 岡山空港
RJOA 広島空港
RJOI 岩国飛行場
RJOT 高松空港
RJOM 松山空港
RJOK 高知空港
RJFR 北九州空港
RJFT 熊本空港
RJFU 長崎空港
RJFS 佐賀空港
RJFO 大分空港
RJFM 宮崎空港
RJFK 鹿児島空港
ROIG 石垣島空港
RJTY 横田飛行場
ROTM 普天間飛行場
RODN 嘉手納飛行場